sensor_id;sensor_type;location;lat;lon;timestamp;P1;durP1;ratioP1;P2;durP2;ratioP2
16662;SDS011;8445;51.270;9.434;2023-04-15T00:01:16;9.33;;;8.07;;
16662;SDS011;8445;51.270;9.434;2023-04-15T00:03:45;9.07;;;8.17;;
16662;SDS011;8445;51.270;9.434;2023-04-15T00:06:12;7.80;;;7.00;;
16662;SDS011;8445;51.270;9.434;2023-04-15T00:08:40;8.73;;;7.00;;
16662;SDS011;8445;51.270;9.434;2023-04-15T00:11:12;7.03;;;6.37;;
16662;SDS011;8445;51.270;9.434;2023-04-15T00:13:46;10.27;;;7.50;;
16662;SDS011;8445;51.270;9.434;2023-04-15T00:16:19;9.33;;;7.77;;
16662;SDS011;8445;51.270;9.434;2023-04-15T00:18:44;8.45;;;7.65;;
16662;SDS011;8445;51.270;9.434;2023-04-15T00:21:12;10.33;;;8.27;;
16662;SDS011;8445;51.270;9.434;2023-04-15T00:23:38;11.52;;;8.52;;
16662;SDS011;8445;51.270;9.434;2023-04-15T00:26:05;10.33;;;8.97;;
16662;SDS011;8445;51.270;9.434;2023-04-15T00:28:31;11.73;;;9.23;;
16662;SDS011;8445;51.270;9.434;2023-04-15T00:30:57;13.20;;;9.65;;
16662;SDS011;8445;51.270;9.434;2023-04-15T00:33:24;11.57;;;8.67;;
16662;SDS011;8445;51.270;9.434;2023-04-15T00:35:51;15.40;;;9.87;;
16662;SDS011;8445;51.270;9.434;2023-04-15T00:38:18;9.50;;;8.10;;
16662;SDS011;8445;51.270;9.434;2023-04-15T00:40:45;12.40;;;9.13;;
16662;SDS011;8445;51.270;9.434;2023-04-15T00:43:11;11.93;;;9.10;;
16662;SDS011;8445;51.270;9.434;2023-04-15T00:45:37;11.80;;;9.13;;
16662;SDS011;8445;51.270;9.434;2023-04-15T00:48:05;14.13;;;9.40;;
16662;SDS011;8445;51.270;9.434;2023-04-15T00:50:32;10.53;;;9.43;;
16662;SDS011;8445;51.270;9.434;2023-04-15T00:52:58;11.33;;;9.47;;
16662;SDS011;8445;51.270;9.434;2023-04-15T00:55:26;9.87;;;8.87;;
16662;SDS011;8445;51.270;9.434;2023-04-15T00:57:54;12.25;;;9.68;;
16662;SDS011;8445;51.270;9.434;2023-04-15T01:00:22;13.67;;;9.17;;
16662;SDS011;8445;51.270;9.434;2023-04-15T01:02:48;13.70;;;10.70;;
16662;SDS011;8445;51.270;9.434;2023-04-15T01:05:15;14.82;;;9.52;;
16662;SDS011;8445;51.270;9.434;2023-04-15T01:07:45;13.67;;;10.80;;
16662;SDS011;8445;51.270;9.434;2023-04-15T01:10:13;12.07;;;10.23;;
16662;SDS011;8445;51.270;9.434;2023-04-15T01:12:42;11.27;;;10.07;;
16662;SDS011;8445;51.270;9.434;2023-04-15T01:15:09;13.20;;;9.57;;
16662;SDS011;8445;51.270;9.434;2023-04-15T01:17:37;10.93;;;9.37;;
16662;SDS011;8445;51.270;9.434;2023-04-15T01:20:06;12.07;;;9.87;;
16662;SDS011;8445;51.270;9.434;2023-04-15T01:22:38;12.80;;;9.10;;
16662;SDS011;8445;51.270;9.434;2023-04-15T01:27:42;11.27;;;10.07;;
16662;SDS011;8445;51.270;9.434;2023-04-15T01:30:10;10.80;;;9.43;;
16662;SDS011;8445;51.270;9.434;2023-04-15T01:32:40;12.60;;;10.00;;
16662;SDS011;8445;51.270;9.434;2023-04-15T01:35:08;13.03;;;10.50;;
16662;SDS011;8445;51.270;9.434;2023-04-15T01:37:34;12.97;;;10.13;;
16662;SDS011;8445;51.270;9.434;2023-04-15T01:40:00;11.20;;;10.00;;
16662;SDS011;8445;51.270;9.434;2023-04-15T01:42:26;14.00;;;10.57;;
16662;SDS011;8445;51.270;9.434;2023-04-15T01:44:54;12.07;;;9.67;;
16662;SDS011;8445;51.270;9.434;2023-04-15T01:47:20;10.93;;;9.03;;
16662;SDS011;8445;51.270;9.434;2023-04-15T01:49:47;12.43;;;10.07;;
16662;SDS011;8445;51.270;9.434;2023-04-15T01:52:15;10.93;;;9.33;;
16662;SDS011;8445;51.270;9.434;2023-04-15T01:54:41;12.77;;;9.70;;
16662;SDS011;8445;51.270;9.434;2023-04-15T01:57:11;12.43;;;9.80;;
16662;SDS011;8445;51.270;9.434;2023-04-15T01:59:38;11.37;;;10.07;;
16662;SDS011;8445;51.270;9.434;2023-04-15T02:02:05;12.27;;;10.10;;
16662;SDS011;8445;51.270;9.434;2023-04-15T02:04:30;10.53;;;9.40;;
16662;SDS011;8445;51.270;9.434;2023-04-15T02:06:58;15.20;;;10.63;;
16662;SDS011;8445;51.270;9.434;2023-04-15T02:09:27;13.43;;;10.97;;
16662;SDS011;8445;51.270;9.434;2023-04-15T02:11:52;11.77;;;10.50;;
16662;SDS011;8445;51.270;9.434;2023-04-15T02:14:18;16.33;;;9.67;;
16662;SDS011;8445;51.270;9.434;2023-04-15T02:16:45;12.23;;;9.60;;
16662;SDS011;8445;51.270;9.434;2023-04-15T02:19:13;11.67;;;10.07;;
16662;SDS011;8445;51.270;9.434;2023-04-15T02:21:39;10.80;;;9.20;;
16662;SDS011;8445;51.270;9.434;2023-04-15T02:24:08;13.53;;;9.83;;
16662;SDS011;8445;51.270;9.434;2023-04-15T02:26:33;11.90;;;10.20;;
16662;SDS011;8445;51.270;9.434;2023-04-15T02:28:59;12.90;;;10.07;;
16662;SDS011;8445;51.270;9.434;2023-04-15T02:31:25;19.87;;;10.70;;
16662;SDS011;8445;51.270;9.434;2023-04-15T02:33:50;12.07;;;10.43;;
16662;SDS011;8445;51.270;9.434;2023-04-15T02:36:16;19.70;;;11.30;;
16662;SDS011;8445;51.270;9.434;2023-04-15T02:38:42;12.90;;;10.80;;
16662;SDS011;8445;51.270;9.434;2023-04-15T02:41:08;15.63;;;10.37;;
16662;SDS011;8445;51.270;9.434;2023-04-15T02:43:34;12.37;;;9.97;;
16662;SDS011;8445;51.270;9.434;2023-04-15T02:46:00;11.82;;;10.25;;
16662;SDS011;8445;51.270;9.434;2023-04-15T02:48:25;12.20;;;9.47;;
16662;SDS011;8445;51.270;9.434;2023-04-15T02:50:53;16.10;;;10.80;;
16662;SDS011;8445;51.270;9.434;2023-04-15T02:53:35;11.80;;;9.67;;
16662;SDS011;8445;51.270;9.434;2023-04-15T02:56:00;13.03;;;11.17;;
16662;SDS011;8445;51.270;9.434;2023-04-15T02:58:26;11.23;;;10.03;;
16662;SDS011;8445;51.270;9.434;2023-04-15T03:00:51;11.20;;;9.30;;
16662;SDS011;8445;51.270;9.434;2023-04-15T03:03:17;10.40;;;9.30;;
16662;SDS011;8445;51.270;9.434;2023-04-15T03:05:43;11.40;;;9.43;;
16662;SDS011;8445;51.270;9.434;2023-04-15T03:08:09;12.93;;;9.57;;
16662;SDS011;8445;51.270;9.434;2023-04-15T03:10:37;11.93;;;10.33;;
16662;SDS011;8445;51.270;9.434;2023-04-15T03:13:02;13.37;;;9.60;;
16662;SDS011;8445;51.270;9.434;2023-04-15T03:15:27;14.70;;;10.20;;
16662;SDS011;8445;51.270;9.434;2023-04-15T03:17:53;13.17;;;9.77;;
16662;SDS011;8445;51.270;9.434;2023-04-15T03:20:19;15.70;;;11.03;;
16662;SDS011;8445;51.270;9.434;2023-04-15T03:22:46;16.80;;;11.63;;
16662;SDS011;8445;51.270;9.434;2023-04-15T03:25:11;16.53;;;12.33;;
16662;SDS011;8445;51.270;9.434;2023-04-15T03:27:37;17.30;;;11.77;;
16662;SDS011;8445;51.270;9.434;2023-04-15T03:30:02;16.30;;;12.37;;
16662;SDS011;8445;51.270;9.434;2023-04-15T03:32:31;16.20;;;12.63;;
16662;SDS011;8445;51.270;9.434;2023-04-15T03:34:56;13.97;;;10.20;;
16662;SDS011;8445;51.270;9.434;2023-04-15T03:37:22;14.63;;;10.67;;
16662;SDS011;8445;51.270;9.434;2023-04-15T03:39:51;18.17;;;12.07;;
16662;SDS011;8445;51.270;9.434;2023-04-15T03:42:16;16.13;;;12.07;;
16662;SDS011;8445;51.270;9.434;2023-04-15T03:44:42;15.77;;;11.73;;
16662;SDS011;8445;51.270;9.434;2023-04-15T03:47:07;15.33;;;11.90;;
16662;SDS011;8445;51.270;9.434;2023-04-15T03:49:33;15.83;;;11.93;;
16662;SDS011;8445;51.270;9.434;2023-04-15T03:51:58;16.73;;;11.60;;
16662;SDS011;8445;51.270;9.434;2023-04-15T03:54:24;18.07;;;12.53;;
16662;SDS011;8445;51.270;9.434;2023-04-15T03:56:49;17.97;;;12.97;;
16662;SDS011;8445;51.270;9.434;2023-04-15T03:59:15;20.83;;;12.53;;
16662;SDS011;8445;51.270;9.434;2023-04-15T04:01:42;17.97;;;11.70;;
16662;SDS011;8445;51.270;9.434;2023-04-15T04:04:10;16.80;;;12.67;;
16662;SDS011;8445;51.270;9.434;2023-04-15T04:06:35;18.43;;;13.23;;
16662;SDS011;8445;51.270;9.434;2023-04-15T04:09:01;15.80;;;12.20;;
16662;SDS011;8445;51.270;9.434;2023-04-15T04:11:26;17.30;;;12.27;;
16662;SDS011;8445;51.270;9.434;2023-04-15T04:13:52;17.83;;;11.93;;
16662;SDS011;8445;51.270;9.434;2023-04-15T04:16:18;17.07;;;11.73;;
16662;SDS011;8445;51.270;9.434;2023-04-15T04:18:43;16.73;;;11.90;;
16662;SDS011;8445;51.270;9.434;2023-04-15T04:21:09;12.60;;;11.27;;
16662;SDS011;8445;51.270;9.434;2023-04-15T04:23:35;17.83;;;10.83;;
16662;SDS011;8445;51.270;9.434;2023-04-15T04:26:00;12.47;;;10.80;;
16662;SDS011;8445;51.270;9.434;2023-04-15T04:28:26;16.80;;;11.70;;
16662;SDS011;8445;51.270;9.434;2023-04-15T04:30:53;15.43;;;11.43;;
16662;SDS011;8445;51.270;9.434;2023-04-15T04:33:19;14.57;;;12.07;;
16662;SDS011;8445;51.270;9.434;2023-04-15T04:35:44;14.03;;;11.73;;
16662;SDS011;8445;51.270;9.434;2023-04-15T04:38:10;13.40;;;10.87;;
16662;SDS011;8445;51.270;9.434;2023-04-15T04:40:35;16.33;;;12.17;;
16662;SDS011;8445;51.270;9.434;2023-04-15T04:43:01;13.53;;;10.73;;
16662;SDS011;8445;51.270;9.434;2023-04-15T04:45:27;12.47;;;11.03;;
16662;SDS011;8445;51.270;9.434;2023-04-15T04:47:52;16.53;;;10.77;;
16662;SDS011;8445;51.270;9.434;2023-04-15T04:50:17;13.83;;;11.17;;
16662;SDS011;8445;51.270;9.434;2023-04-15T04:52:43;14.23;;;11.17;;
16662;SDS011;8445;51.270;9.434;2023-04-15T04:55:09;10.77;;;9.57;;
16662;SDS011;8445;51.270;9.434;2023-04-15T04:57:34;10.97;;;8.53;;
16662;SDS011;8445;51.270;9.434;2023-04-15T05:00:00;14.00;;;11.27;;
16662;SDS011;8445;51.270;9.434;2023-04-15T05:02:27;15.68;;;11.80;;
16662;SDS011;8445;51.270;9.434;2023-04-15T05:04:52;12.83;;;10.67;;
16662;SDS011;8445;51.270;9.434;2023-04-15T05:07:21;13.27;;;11.37;;
16662;SDS011;8445;51.270;9.434;2023-04-15T05:09:46;15.73;;;12.33;;
16662;SDS011;8445;51.270;9.434;2023-04-15T05:12:12;12.32;;;10.93;;
16662;SDS011;8445;51.270;9.434;2023-04-15T05:14:39;16.30;;;13.25;;
16662;SDS011;8445;51.270;9.434;2023-04-15T05:17:07;14.85;;;12.25;;
16662;SDS011;8445;51.270;9.434;2023-04-15T05:19:33;16.90;;;12.80;;
16662;SDS011;8445;51.270;9.434;2023-04-15T05:21:59;16.43;;;14.37;;
16662;SDS011;8445;51.270;9.434;2023-04-15T05:24:25;14.65;;;12.57;;
16662;SDS011;8445;51.270;9.434;2023-04-15T05:26:55;14.98;;;13.13;;
16662;SDS011;8445;51.270;9.434;2023-04-15T05:29:21;16.33;;;12.05;;
16662;SDS011;8445;51.270;9.434;2023-04-15T05:31:46;13.38;;;9.63;;
16662;SDS011;8445;51.270;9.434;2023-04-15T05:34:11;14.93;;;13.13;;
16662;SDS011;8445;51.270;9.434;2023-04-15T05:36:39;14.30;;;11.70;;
16662;SDS011;8445;51.270;9.434;2023-04-15T05:39:05;14.50;;;12.82;;
16662;SDS011;8445;51.270;9.434;2023-04-15T05:41:31;14.02;;;11.23;;
16662;SDS011;8445;51.270;9.434;2023-04-15T05:43:56;14.75;;;13.05;;
16662;SDS011;8445;51.270;9.434;2023-04-15T05:46:22;15.43;;;13.10;;
16662;SDS011;8445;51.270;9.434;2023-04-15T05:48:57;13.50;;;11.07;;
16662;SDS011;8445;51.270;9.434;2023-04-15T05:51:22;14.38;;;10.85;;
16662;SDS011;8445;51.270;9.434;2023-04-15T05:53:47;13.43;;;11.95;;
16662;SDS011;8445;51.270;9.434;2023-04-15T05:56:13;12.45;;;10.93;;
16662;SDS011;8445;51.270;9.434;2023-04-15T05:58:38;12.68;;;11.30;;
16662;SDS011;8445;51.270;9.434;2023-04-15T06:01:04;13.63;;;11.30;;
16662;SDS011;8445;51.270;9.434;2023-04-15T06:03:29;13.45;;;11.90;;
16662;SDS011;8445;51.270;9.434;2023-04-15T06:05:57;10.05;;;7.88;;
16662;SDS011;8445;51.270;9.434;2023-04-15T06:08:22;11.80;;;8.57;;
16662;SDS011;8445;51.270;9.434;2023-04-15T06:10:48;11.68;;;10.45;;
16662;SDS011;8445;51.270;9.434;2023-04-15T06:13:13;11.73;;;9.80;;
16662;SDS011;8445;51.270;9.434;2023-04-15T06:15:39;9.85;;;7.75;;
16662;SDS011;8445;51.270;9.434;2023-04-15T06:18:04;10.75;;;9.07;;
16662;SDS011;8445;51.270;9.434;2023-04-15T06:20:30;9.13;;;8.23;;
16662;SDS011;8445;51.270;9.434;2023-04-15T06:22:56;11.15;;;9.10;;
16662;SDS011;8445;51.270;9.434;2023-04-15T06:25:21;9.02;;;8.13;;
16662;SDS011;8445;51.270;9.434;2023-04-15T06:27:47;11.43;;;9.25;;
16662;SDS011;8445;51.270;9.434;2023-04-15T06:30:12;10.75;;;9.25;;
16662;SDS011;8445;51.270;9.434;2023-04-15T06:32:38;9.88;;;8.57;;
16662;SDS011;8445;51.270;9.434;2023-04-15T06:35:03;10.63;;;8.27;;
16662;SDS011;8445;51.270;9.434;2023-04-15T06:37:29;10.40;;;9.27;;
16662;SDS011;8445;51.270;9.434;2023-04-15T06:39:55;10.43;;;8.77;;
16662;SDS011;8445;51.270;9.434;2023-04-15T06:42:21;9.73;;;8.73;;
16662;SDS011;8445;51.270;9.434;2023-04-15T06:44:46;10.85;;;8.80;;
16662;SDS011;8445;51.270;9.434;2023-04-15T06:47:12;9.75;;;8.40;;
16662;SDS011;8445;51.270;9.434;2023-04-15T06:49:39;9.80;;;8.00;;
16662;SDS011;8445;51.270;9.434;2023-04-15T06:52:04;10.57;;;9.02;;
16662;SDS011;8445;51.270;9.434;2023-04-15T06:54:30;12.45;;;8.10;;
16662;SDS011;8445;51.270;9.434;2023-04-15T06:56:55;9.82;;;8.70;;
16662;SDS011;8445;51.270;9.434;2023-04-15T06:59:21;10.80;;;8.32;;
16662;SDS011;8445;51.270;9.434;2023-04-15T07:01:46;9.07;;;8.15;;
16662;SDS011;8445;51.270;9.434;2023-04-15T07:04:11;13.98;;;8.75;;
16662;SDS011;8445;51.270;9.434;2023-04-15T07:06:37;11.25;;;9.52;;
16662;SDS011;8445;51.270;9.434;2023-04-15T07:09:02;9.10;;;8.20;;
16662;SDS011;8445;51.270;9.434;2023-04-15T07:11:29;10.40;;;8.85;;
16662;SDS011;8445;51.270;9.434;2023-04-15T07:13:54;10.48;;;8.15;;
16662;SDS011;8445;51.270;9.434;2023-04-15T07:16:21;10.38;;;9.38;;
16662;SDS011;8445;51.270;9.434;2023-04-15T07:18:47;11.15;;;10.05;;
16662;SDS011;8445;51.270;9.434;2023-04-15T07:21:12;9.90;;;8.80;;
16662;SDS011;8445;51.270;9.434;2023-04-15T07:23:38;11.90;;;9.60;;
16662;SDS011;8445;51.270;9.434;2023-04-15T07:26:03;10.27;;;8.85;;
16662;SDS011;8445;51.270;9.434;2023-04-15T07:28:28;10.40;;;9.30;;
16662;SDS011;8445;51.270;9.434;2023-04-15T07:30:54;10.10;;;9.10;;
16662;SDS011;8445;51.270;9.434;2023-04-15T07:33:21;10.70;;;9.65;;
16662;SDS011;8445;51.270;9.434;2023-04-15T07:35:47;12.73;;;9.88;;
16662;SDS011;8445;51.270;9.434;2023-04-15T07:38:13;11.52;;;10.30;;
16662;SDS011;8445;51.270;9.434;2023-04-15T07:40:38;11.25;;;10.00;;
16662;SDS011;8445;51.270;9.434;2023-04-15T07:43:04;10.70;;;9.60;;
16662;SDS011;8445;51.270;9.434;2023-04-15T07:45:30;10.63;;;9.40;;
16662;SDS011;8445;51.270;9.434;2023-04-15T07:47:58;9.90;;;8.75;;
16662;SDS011;8445;51.270;9.434;2023-04-15T07:50:24;8.70;;;7.85;;
16662;SDS011;8445;51.270;9.434;2023-04-15T07:52:50;9.48;;;8.50;;
16662;SDS011;8445;51.270;9.434;2023-04-15T07:55:16;8.88;;;8.05;;
16662;SDS011;8445;51.270;9.434;2023-04-15T07:57:44;9.18;;;8.27;;
16662;SDS011;8445;51.270;9.434;2023-04-15T08:00:11;9.25;;;8.10;;
16662;SDS011;8445;51.270;9.434;2023-04-15T08:02:40;9.40;;;8.07;;
16662;SDS011;8445;51.270;9.434;2023-04-15T08:05:11;8.50;;;7.55;;
16662;SDS011;8445;51.270;9.434;2023-04-15T08:07:38;8.15;;;7.28;;
16662;SDS011;8445;51.270;9.434;2023-04-15T08:10:03;8.38;;;5.85;;
16662;SDS011;8445;51.270;9.434;2023-04-15T08:12:30;6.88;;;6.18;;
16662;SDS011;8445;51.270;9.434;2023-04-15T08:14:55;7.57;;;6.85;;
16662;SDS011;8445;51.270;9.434;2023-04-15T08:17:21;7.18;;;6.43;;
16662;SDS011;8445;51.270;9.434;2023-04-15T08:19:47;5.85;;;5.00;;
16662;SDS011;8445;51.270;9.434;2023-04-15T08:22:13;7.07;;;6.38;;
16662;SDS011;8445;51.270;9.434;2023-04-15T08:24:41;6.55;;;5.95;;
16662;SDS011;8445;51.270;9.434;2023-04-15T08:27:09;8.50;;;5.85;;
16662;SDS011;8445;51.270;9.434;2023-04-15T08:29:35;6.78;;;5.95;;
16662;SDS011;8445;51.270;9.434;2023-04-15T08:32:00;7.53;;;5.72;;
16662;SDS011;8445;51.270;9.434;2023-04-15T08:34:26;5.43;;;4.88;;
16662;SDS011;8445;51.270;9.434;2023-04-15T08:36:52;5.88;;;5.35;;
16662;SDS011;8445;51.270;9.434;2023-04-15T08:39:18;4.25;;;3.85;;
16662;SDS011;8445;51.270;9.434;2023-04-15T08:41:47;5.18;;;4.68;;
16662;SDS011;8445;51.270;9.434;2023-04-15T08:44:33;5.18;;;4.68;;
16662;SDS011;8445;51.270;9.434;2023-04-15T08:47:01;4.43;;;4.03;;
16662;SDS011;8445;51.270;9.434;2023-04-15T08:49:31;5.30;;;4.70;;
16662;SDS011;8445;51.270;9.434;2023-04-15T08:51:59;3.65;;;2.63;;
16662;SDS011;8445;51.270;9.434;2023-04-15T08:54:25;3.17;;;2.90;;
16662;SDS011;8445;51.270;9.434;2023-04-15T08:56:52;4.22;;;3.85;;
16662;SDS011;8445;51.270;9.434;2023-04-15T08:59:18;4.78;;;4.00;;
16662;SDS011;8445;51.270;9.434;2023-04-15T09:01:46;4.43;;;3.97;;
16662;SDS011;8445;51.270;9.434;2023-04-15T09:04:11;4.95;;;4.55;;
16662;SDS011;8445;51.270;9.434;2023-04-15T09:06:37;5.60;;;4.95;;
16662;SDS011;8445;51.270;9.434;2023-04-15T09:09:04;5.38;;;4.88;;
16662;SDS011;8445;51.270;9.434;2023-04-15T09:11:30;4.95;;;4.30;;
16662;SDS011;8445;51.270;9.434;2023-04-15T09:13:55;5.45;;;4.95;;
16662;SDS011;8445;51.270;9.434;2023-04-15T09:16:23;5.65;;;5.15;;
16662;SDS011;8445;51.270;9.434;2023-04-15T09:18:48;7.72;;;5.82;;
16662;SDS011;8445;51.270;9.434;2023-04-15T09:21:14;5.63;;;5.03;;
16662;SDS011;8445;51.270;9.434;2023-04-15T09:23:57;4.88;;;4.38;;
16662;SDS011;8445;51.270;9.434;2023-04-15T09:26:34;5.93;;;5.32;;
16662;SDS011;8445;51.270;9.434;2023-04-15T09:29:04;5.93;;;4.55;;
16662;SDS011;8445;51.270;9.434;2023-04-15T09:31:33;5.57;;;4.68;;
16662;SDS011;8445;51.270;9.434;2023-04-15T09:34:01;4.82;;;4.43;;
16662;SDS011;8445;51.270;9.434;2023-04-15T09:36:26;4.43;;;4.03;;
16662;SDS011;8445;51.270;9.434;2023-04-15T09:38:56;5.20;;;4.70;;
16662;SDS011;8445;51.270;9.434;2023-04-15T09:41:22;5.35;;;4.85;;
16662;SDS011;8445;51.270;9.434;2023-04-15T09:43:49;4.65;;;4.25;;
16662;SDS011;8445;51.270;9.434;2023-04-15T09:46:15;4.88;;;4.47;;
16662;SDS011;8445;51.270;9.434;2023-04-15T09:48:40;4.85;;;4.40;;
16662;SDS011;8445;51.270;9.434;2023-04-15T09:51:06;4.55;;;4.15;;
16662;SDS011;8445;51.270;9.434;2023-04-15T09:53:33;6.68;;;4.70;;
16662;SDS011;8445;51.270;9.434;2023-04-15T09:56:00;5.20;;;4.70;;
16662;SDS011;8445;51.270;9.434;2023-04-15T09:58:27;4.47;;;4.07;;
16662;SDS011;8445;51.270;9.434;2023-04-15T10:00:57;4.45;;;4.05;;
16662;SDS011;8445;51.270;9.434;2023-04-15T10:03:31;4.00;;;3.60;;
16662;SDS011;8445;51.270;9.434;2023-04-15T10:05:58;3.63;;;3.33;;
16662;SDS011;8445;51.270;9.434;2023-04-15T10:08:28;4.88;;;4.38;;
16662;SDS011;8445;51.270;9.434;2023-04-15T10:10:55;4.90;;;4.40;;
16662;SDS011;8445;51.270;9.434;2023-04-15T10:13:25;4.50;;;4.10;;
16662;SDS011;8445;51.270;9.434;2023-04-15T10:15:57;3.67;;;3.35;;
16662;SDS011;8445;51.270;9.434;2023-04-15T10:18:25;4.20;;;3.80;;
16662;SDS011;8445;51.270;9.434;2023-04-15T10:20:52;4.63;;;4.00;;
16662;SDS011;8445;51.270;9.434;2023-04-15T10:23:19;4.20;;;3.80;;
16662;SDS011;8445;51.270;9.434;2023-04-15T10:25:46;4.10;;;3.70;;
16662;SDS011;8445;51.270;9.434;2023-04-15T10:28:13;4.05;;;3.65;;
16662;SDS011;8445;51.270;9.434;2023-04-15T10:30:40;3.38;;;3.08;;
16662;SDS011;8445;51.270;9.434;2023-04-15T10:33:07;3.00;;;2.80;;
16662;SDS011;8445;51.270;9.434;2023-04-15T10:35:33;3.25;;;2.95;;
16662;SDS011;8445;51.270;9.434;2023-04-15T10:37:59;2.90;;;2.70;;
16662;SDS011;8445;51.270;9.434;2023-04-15T10:40:26;3.42;;;3.13;;
16662;SDS011;8445;51.270;9.434;2023-04-15T10:42:59;4.03;;;2.63;;
16662;SDS011;8445;51.270;9.434;2023-04-15T10:45:26;2.85;;;2.65;;
16662;SDS011;8445;51.270;9.434;2023-04-15T10:48:00;3.40;;;2.80;;
16662;SDS011;8445;51.270;9.434;2023-04-15T10:50:27;2.97;;;2.78;;
16662;SDS011;8445;51.270;9.434;2023-04-15T10:52:54;2.95;;;2.72;;
16662;SDS011;8445;51.270;9.434;2023-04-15T10:55:22;2.80;;;2.47;;
16662;SDS011;8445;51.270;9.434;2023-04-15T10:57:57;2.63;;;2.42;;
16662;SDS011;8445;51.270;9.434;2023-04-15T11:00:25;2.13;;;2.03;;
16662;SDS011;8445;51.270;9.434;2023-04-15T11:03:06;2.45;;;2.25;;
16662;SDS011;8445;51.270;9.434;2023-04-15T11:08:10;2.08;;;1.98;;
16662;SDS011;8445;51.270;9.434;2023-04-15T11:13:03;2.78;;;2.58;;
16662;SDS011;8445;51.270;9.434;2023-04-15T11:15:39;2.15;;;2.05;;
16662;SDS011;8445;51.270;9.434;2023-04-15T11:18:10;2.20;;;2.10;;
16662;SDS011;8445;51.270;9.434;2023-04-15T11:20:36;1.80;;;1.70;;
16662;SDS011;8445;51.270;9.434;2023-04-15T11:23:03;1.30;;;1.20;;
16662;SDS011;8445;51.270;9.434;2023-04-15T11:25:30;2.00;;;1.88;;
16662;SDS011;8445;51.270;9.434;2023-04-15T11:27:57;1.80;;;1.70;;
16662;SDS011;8445;51.270;9.434;2023-04-15T11:30:24;1.90;;;1.75;;
16662;SDS011;8445;51.270;9.434;2023-04-15T11:32:52;2.00;;;1.90;;
16662;SDS011;8445;51.270;9.434;2023-04-15T11:35:19;2.22;;;2.03;;
16662;SDS011;8445;51.270;9.434;2023-04-15T11:37:47;1.63;;;1.52;;
16662;SDS011;8445;51.270;9.434;2023-04-15T11:40:15;1.40;;;1.30;;
16662;SDS011;8445;51.270;9.434;2023-04-15T11:43:08;2.10;;;1.90;;
16662;SDS011;8445;51.270;9.434;2023-04-15T11:45:35;1.58;;;1.48;;
16662;SDS011;8445;51.270;9.434;2023-04-15T11:48:05;1.30;;;1.30;;
16662;SDS011;8445;51.270;9.434;2023-04-15T11:50:32;2.35;;;2.13;;
16662;SDS011;8445;51.270;9.434;2023-04-15T11:52:59;1.33;;;1.33;;
16662;SDS011;8445;51.270;9.434;2023-04-15T11:55:27;1.60;;;1.50;;
16662;SDS011;8445;51.270;9.434;2023-04-15T11:58:08;2.70;;;1.75;;
16662;SDS011;8445;51.270;9.434;2023-04-15T12:00:35;1.77;;;1.67;;
16662;SDS011;8445;51.270;9.434;2023-04-15T12:11:20;1.95;;;1.63;;
16662;SDS011;8445;51.270;9.434;2023-04-15T12:14:10;1.70;;;1.60;;
16662;SDS011;8445;51.270;9.434;2023-04-15T12:16:40;1.70;;;1.60;;
16662;SDS011;8445;51.270;9.434;2023-04-15T12:19:13;1.92;;;1.83;;
16662;SDS011;8445;51.270;9.434;2023-04-15T12:21:43;1.80;;;1.70;;
16662;SDS011;8445;51.270;9.434;2023-04-15T12:24:10;1.98;;;1.88;;
16662;SDS011;8445;51.270;9.434;2023-04-15T12:26:41;2.15;;;2.05;;
16662;SDS011;8445;51.270;9.434;2023-04-15T12:29:09;2.17;;;2.00;;
16662;SDS011;8445;51.270;9.434;2023-04-15T12:31:36;2.17;;;1.98;;
16662;SDS011;8445;51.270;9.434;2023-04-15T12:34:10;2.20;;;2.10;;
16662;SDS011;8445;51.270;9.434;2023-04-15T12:36:36;2.10;;;1.92;;
16662;SDS011;8445;51.270;9.434;2023-04-15T12:39:02;2.03;;;1.92;;
16662;SDS011;8445;51.270;9.434;2023-04-15T12:41:28;3.10;;;2.72;;
16662;SDS011;8445;51.270;9.434;2023-04-15T12:43:54;2.60;;;2.35;;
16662;SDS011;8445;51.270;9.434;2023-04-15T12:46:19;2.30;;;2.10;;
16662;SDS011;8445;51.270;9.434;2023-04-15T12:48:45;2.50;;;2.30;;
16662;SDS011;8445;51.270;9.434;2023-04-15T12:51:11;2.58;;;2.38;;
16662;SDS011;8445;51.270;9.434;2023-04-15T12:53:37;2.95;;;2.70;;
16662;SDS011;8445;51.270;9.434;2023-04-15T12:56:03;3.38;;;3.08;;
16662;SDS011;8445;51.270;9.434;2023-04-15T12:58:28;2.83;;;2.63;;
16662;SDS011;8445;51.270;9.434;2023-04-15T13:00:54;2.80;;;2.60;;
16662;SDS011;8445;51.270;9.434;2023-04-15T13:03:20;2.58;;;2.38;;
16662;SDS011;8445;51.270;9.434;2023-04-15T13:05:45;3.28;;;2.97;;
16662;SDS011;8445;51.270;9.434;2023-04-15T13:08:10;2.97;;;2.78;;
16662;SDS011;8445;51.270;9.434;2023-04-15T13:10:36;3.30;;;3.00;;
16662;SDS011;8445;51.270;9.434;2023-04-15T13:13:02;3.22;;;3.03;;
16662;SDS011;8445;51.270;9.434;2023-04-15T13:15:28;2.90;;;2.70;;
16662;SDS011;8445;51.270;9.434;2023-04-15T13:17:53;3.15;;;2.95;;
16662;SDS011;8445;51.270;9.434;2023-04-15T13:20:19;2.83;;;2.63;;
16662;SDS011;8445;51.270;9.434;2023-04-15T13:22:44;2.15;;;2.05;;
16662;SDS011;8445;51.270;9.434;2023-04-15T13:25:10;2.42;;;2.22;;
16662;SDS011;8445;51.270;9.434;2023-04-15T13:27:36;2.28;;;2.08;;
16662;SDS011;8445;51.270;9.434;2023-04-15T13:30:02;3.00;;;2.80;;
16662;SDS011;8445;51.270;9.434;2023-04-15T13:32:28;3.45;;;3.15;;
16662;SDS011;8445;51.270;9.434;2023-04-15T13:34:54;3.83;;;2.53;;
16662;SDS011;8445;51.270;9.434;2023-04-15T13:37:24;2.50;;;2.30;;
16662;SDS011;8445;51.270;9.434;2023-04-15T13:39:54;2.25;;;2.10;;
16662;SDS011;8445;51.270;9.434;2023-04-15T13:42:20;2.60;;;2.40;;
16662;SDS011;8445;51.270;9.434;2023-04-15T13:44:46;2.28;;;2.17;;
16662;SDS011;8445;51.270;9.434;2023-04-15T13:47:11;2.20;;;2.10;;
16662;SDS011;8445;51.270;9.434;2023-04-15T13:49:39;2.75;;;2.55;;
16662;SDS011;8445;51.270;9.434;2023-04-15T13:52:04;2.60;;;2.40;;
16662;SDS011;8445;51.270;9.434;2023-04-15T13:54:30;2.25;;;2.15;;
16662;SDS011;8445;51.270;9.434;2023-04-15T13:56:55;2.50;;;2.30;;
16662;SDS011;8445;51.270;9.434;2023-04-15T13:59:22;2.72;;;2.53;;
16662;SDS011;8445;51.270;9.434;2023-04-15T14:01:47;3.20;;;2.65;;
16662;SDS011;8445;51.270;9.434;2023-04-15T14:04:13;3.05;;;2.85;;
16662;SDS011;8445;51.270;9.434;2023-04-15T14:06:38;2.35;;;2.15;;
16662;SDS011;8445;51.270;9.434;2023-04-15T14:09:04;3.70;;;3.40;;
16662;SDS011;8445;51.270;9.434;2023-04-15T14:11:30;3.58;;;3.28;;
16662;SDS011;8445;51.270;9.434;2023-04-15T14:13:55;5.47;;;3.17;;
16662;SDS011;8445;51.270;9.434;2023-04-15T14:16:21;4.10;;;3.72;;
16662;SDS011;8445;51.270;9.434;2023-04-15T14:18:46;4.43;;;4.13;;
16662;SDS011;8445;51.270;9.434;2023-04-15T14:21:12;4.95;;;4.35;;
16662;SDS011;8445;51.270;9.434;2023-04-15T14:23:38;5.88;;;4.10;;
16662;SDS011;8445;51.270;9.434;2023-04-15T14:26:03;5.03;;;4.45;;
16662;SDS011;8445;51.270;9.434;2023-04-15T14:28:29;4.88;;;4.47;;
16662;SDS011;8445;51.270;9.434;2023-04-15T14:30:54;5.10;;;4.60;;
16662;SDS011;8445;51.270;9.434;2023-04-15T14:33:20;2.95;;;2.67;;
16662;SDS011;8445;51.270;9.434;2023-04-15T14:35:45;5.57;;;5.07;;
16662;SDS011;8445;51.270;9.434;2023-04-15T14:38:11;7.00;;;5.22;;
16662;SDS011;8445;51.270;9.434;2023-04-15T14:40:36;5.13;;;4.63;;
16662;SDS011;8445;51.270;9.434;2023-04-15T14:43:02;4.25;;;3.85;;
16662;SDS011;8445;51.270;9.434;2023-04-15T14:45:28;5.38;;;4.90;;
16662;SDS011;8445;51.270;9.434;2023-04-15T14:47:55;6.65;;;5.35;;
16662;SDS011;8445;51.270;9.434;2023-04-15T14:50:20;5.13;;;4.68;;
16662;SDS011;8445;51.270;9.434;2023-04-15T14:52:46;6.25;;;5.65;;
16662;SDS011;8445;51.270;9.434;2023-04-15T14:55:12;5.20;;;4.70;;
16662;SDS011;8445;51.270;9.434;2023-04-15T14:57:38;6.15;;;5.15;;
16662;SDS011;8445;51.270;9.434;2023-04-15T15:00:05;5.30;;;4.10;;
16662;SDS011;8445;51.270;9.434;2023-04-15T15:02:32;5.93;;;5.30;;
16662;SDS011;8445;51.270;9.434;2023-04-15T15:04:59;5.68;;;5.13;;